Time;durP1;ratioP1;P1;durP2;ratioP2;P2;SDS_P1;SDS_P2;PMS_P1;PMS_P2;Temp;Humidity;BMP_temperature;BMP_pressure;BME280_temperature;BME280_humidity;BME280_pressure;Samples;Min_cycle;Max_cycle;Signal;HPM_P1;HPM_P2
2023/02/07 00:01:12;;;;;;;30.05;13.52;;;-1.90;97.00;;;;;;5046843;28;20533;-66
2023/02/07 00:03:38;;;;;;;24.67;11.20;;;-1.90;96.70;;;;;;5039831;28;20060;-66
2023/02/07 00:06:10;;;;;;;30.80;11.88;;;-2.00;96.50;;;;;;5047688;28;20036;-66
2023/02/07 00:08:37;;;;;;;28.10;11.73;;;-2.00;96.70;;;;;;5046964;28;20087;-66
2023/02/07 00:11:07;;;;;;;32.15;12.27;;;-2.10;96.80;;;;;;5044871;28;20179;-66
2023/02/07 00:13:34;;;;;;;26.52;11.80;;;-2.10;96.90;;;;;;5045737;28;20760;-66
2023/02/07 00:16:01;;;;;;;25.70;12.18;;;-2.10;97.20;;;;;;5044978;28;20033;-66
2023/02/07 00:18:27;;;;;;;22.73;11.65;;;-2.00;97.40;;;;;;5047356;28;20052;-67
2023/02/07 00:20:59;;;;;;;24.13;10.60;;;-2.00;97.40;;;;;;5045949;28;20135;-66
2023/02/07 00:23:26;;;;;;;24.52;11.80;;;-2.00;97.40;;;;;;5042557;28;20056;-66
2023/02/07 00:25:51;;;;;;;31.65;12.82;;;-1.90;97.20;;;;;;5047922;28;20017;-66
2023/02/07 00:28:17;;;;;;;31.80;12.15;;;-1.90;96.80;;;;;;5047417;28;20127;-66
2023/02/07 00:30:43;;;;;;;26.42;12.45;;;-2.00;96.90;;;;;;5045187;28;20093;-66
2023/02/07 00:33:09;;;;;;;27.48;11.90;;;-2.00;97.00;;;;;;5045289;28;20123;-66
2023/02/07 00:35:35;;;;;;;40.42;15.75;;;-2.10;96.50;;;;;;5044306;28;20097;-66
2023/02/07 00:38:01;;;;;;;45.95;16.52;;;-2.20;96.40;;;;;;5023468;28;20032;-66
2023/02/07 00:40:26;;;;;;;41.67;16.52;;;-2.20;95.90;;;;;;5046453;28;20041;-66
2023/02/07 00:42:52;;;;;;;40.97;16.60;;;-2.20;95.20;;;;;;5028079;28;20032;-66
2023/02/07 00:45:18;;;;;;;35.80;14.85;;;-2.20;94.60;;;;;;5028330;28;20033;-66
2023/02/07 00:47:45;;;;;;;30.63;13.60;;;-2.30;94.80;;;;;;5048724;28;20063;-66
2023/02/07 00:50:10;;;;;;;30.60;12.10;;;-2.40;95.10;;;;;;5044296;28;20119;-66
2023/02/07 00:52:36;;;;;;;35.17;12.93;;;-2.40;95.40;;;;;;5045526;28;20068;-66
2023/02/07 00:55:02;;;;;;;28.15;12.98;;;-2.40;95.40;;;;;;5046863;28;20040;-66
2023/02/07 00:57:28;;;;;;;28.08;12.30;;;-2.40;95.30;;;;;;5029076;28;20101;-66
2023/02/07 00:59:53;;;;;;;27.58;12.88;;;-2.50;95.30;;;;;;5027306;28;20267;-66
2023/02/07 01:02:19;;;;;;;28.52;11.77;;;-2.50;95.20;;;;;;5044088;28;20643;-67
2023/02/07 01:04:45;;;;;;;32.55;12.65;;;-2.50;94.60;;;;;;5047908;28;20895;-66
2023/02/07 01:07:11;;;;;;;28.95;12.02;;;-2.60;94.40;;;;;;5032989;28;20040;-66
2023/02/07 01:09:37;;;;;;;32.50;12.68;;;-2.60;94.20;;;;;;5029994;28;20410;-66
2023/02/07 01:12:03;;;;;;;26.60;11.55;;;-2.70;94.20;;;;;;5049220;28;20146;-66
2023/02/07 01:14:28;;;;;;;23.80;11.80;;;-2.70;94.30;;;;;;5050567;28;20041;-66
2023/02/07 01:16:54;;;;;;;30.63;12.90;;;-2.70;94.50;;;;;;5045330;28;20060;-66
2023/02/07 01:19:20;;;;;;;34.40;13.25;;;-2.70;94.50;;;;;;5034454;28;20040;-66
2023/02/07 01:21:46;;;;;;;29.90;12.13;;;-2.70;94.40;;;;;;5033044;28;20084;-66
2023/02/07 01:24:12;;;;;;;28.85;11.73;;;-2.70;94.20;;;;;;5050945;28;20035;-66
2023/02/07 01:26:39;;;;;;;25.35;10.80;;;-2.80;94.30;;;;;;5031448;28;20633;-66
2023/02/07 01:29:05;;;;;;;26.95;11.73;;;-2.80;94.50;;;;;;5049318;28;20107;-66
2023/02/07 01:31:31;;;;;;;31.55;12.93;;;-2.80;94.70;;;;;;5055502;28;20029;-66
2023/02/07 01:33:59;;;;;;;26.08;11.65;;;-2.90;94.50;;;;;;5032044;28;20397;-66
2023/02/07 01:36:26;;;;;;;27.02;11.32;;;-2.90;94.40;;;;;;5033089;28;20032;-66
2023/02/07 01:38:53;;;;;;;33.78;12.38;;;-2.90;94.20;;;;;;5050165;28;20111;-66
2023/02/07 01:41:20;;;;;;;29.98;11.32;;;-2.90;94.00;;;;;;5051576;28;20052;-66
2023/02/07 01:43:59;;;;;;;31.67;11.95;;;-3.10;94.00;;;;;;5031780;28;20060;-66
2023/02/07 01:46:25;;;;;;;30.15;11.57;;;-3.10;94.40;;;;;;5014911;28;20033;-66
2023/02/07 01:48:54;;;;;;;29.42;12.55;;;-3.10;94.70;;;;;;5055376;28;20039;-66
2023/02/07 01:51:21;;;;;;;28.00;11.23;;;-3.10;94.90;;;;;;5047010;28;20380;-66
2023/02/07 01:53:47;;;;;;;28.95;11.18;;;-3.10;94.80;;;;;;5033172;28;20038;-66
2023/02/07 01:56:15;;;;;;;28.40;10.75;;;-3.10;94.70;;;;;;5028916;28;20036;-66
2023/02/07 01:58:41;;;;;;;28.83;11.45;;;-3.10;94.50;;;;;;5032971;28;20032;-66
2023/02/07 02:01:13;;;;;;;30.98;11.70;;;-3.10;94.50;;;;;;5029348;28;20521;-66
2023/02/07 02:03:43;;;;;;;25.60;11.07;;;-3.10;94.40;;;;;;5052598;28;20044;-66
2023/02/07 02:06:11;;;;;;;24.23;10.57;;;-3.20;94.70;;;;;;5028814;28;20032;-66
2023/02/07 02:08:36;;;;;;;25.40;11.35;;;-3.20;94.90;;;;;;5052632;28;20025;-66
2023/02/07 02:11:23;;;;;;;29.00;12.10;;;-3.20;94.90;;;;;;5050755;28;20029;-66
2023/02/07 02:13:56;;;;;;;;;;;-3.10;95.00;;;;;;5031385;28;20043;-66
2023/02/07 02:16:41;;;;;;;22.75;10.70;;;-3.10;95.10;;;;;;5049966;28;20376;-66
2023/02/07 02:19:22;;;;;;;21.85;10.32;;;-3.10;95.10;;;;;;5030272;28;20611;-66
2023/02/07 02:22:15;;;;;;;23.23;10.25;;;-3.10;94.70;;;;;;5031278;28;20039;-66
2023/02/07 02:25:06;;;;;;;27.23;11.77;;;-3.10;94.50;;;;;;5031172;28;20071;-66
2023/02/07 02:27:57;;;;;;;31.30;11.25;;;-3.10;94.60;;;;;;5051850;28;20692;-66
2023/02/07 02:31:00;;;;;;;24.77;10.73;;;-3.10;94.20;;;;;;5029023;28;20028;-66
2023/02/07 02:34:02;;;;;;;25.08;11.18;;;-3.20;93.90;;;;;;5050527;28;20028;-66
2023/02/07 02:36:53;;;;;;;25.42;11.73;;;-3.20;94.00;;;;;;5035628;28;20062;-66
2023/02/07 02:39:21;;;;;;;19.27;9.68;;;-3.20;93.50;;;;;;5015907;28;20455;-66
2023/02/07 02:42:10;;;;;;;27.67;11.35;;;-3.30;93.70;;;;;;5028262;28;20033;-66
2023/02/07 02:44:44;;;;;;;24.77;11.15;;;-3.30;94.20;;;;;;4988444;28;20453;-66
2023/02/07 02:47:11;;;;;;;24.90;10.98;;;-3.30;93.90;;;;;;5048238;28;20025;-66
2023/02/07 02:49:38;;;;;;;21.35;10.55;;;-3.30;94.00;;;;;;5033095;28;20032;-66
2023/02/07 02:52:04;;;;;;;24.35;11.20;;;-3.20;94.20;;;;;;5048200;28;20110;-66
2023/02/07 02:54:35;;;;;;;23.88;10.55;;;-3.20;94.50;;;;;;5032009;28;20443;-66
2023/02/07 02:57:48;;;;;;;26.00;10.50;;;-3.20;94.40;;;;;;5031613;28;20044;-66
2023/02/07 03:00:39;;;;;;;25.70;10.07;;;-3.20;94.10;;;;;;5013204;28;20111;-66
2023/02/07 03:03:24;;;;;;;26.10;10.02;;;-3.20;93.90;;;;;;5045670;28;20082;-66
2023/02/07 03:05:56;;;;;;;25.13;10.20;;;-3.30;93.90;;;;;;5030423;28;20024;-66
2023/02/07 03:08:56;;;;;;;25.40;10.52;;;-3.30;93.90;;;;;;5030245;28;20448;-66
2023/02/07 03:11:24;;;;;;;26.40;10.43;;;-3.30;93.60;;;;;;5047155;28;20523;-66
2023/02/07 03:14:10;;;;;;;23.27;10.48;;;-3.40;93.40;;;;;;5048662;28;20021;-66
2023/02/07 03:17:08;;;;;;;23.88;10.18;;;-3.40;93.00;;;;;;5049427;28;20037;-66
2023/02/07 03:19:46;;;;;;;23.58;9.95;;;-3.40;92.30;;;;;;5029818;28;20060;-66
2023/02/07 03:22:17;;;;;;;25.05;10.38;;;-3.40;91.80;;;;;;5015725;28;20051;-66
2023/02/07 03:24:54;;;;;;;20.23;9.95;;;-3.50;91.90;;;;;;5044609;28;20644;-66
2023/02/07 03:27:23;;;;;;;29.77;12.50;;;-3.50;92.10;;;;;;5025951;28;20025;-66
2023/02/07 03:29:56;;;;;;;36.08;13.90;;;-3.50;92.50;;;;;;5049068;28;20493;-66
2023/02/07 03:32:27;;;;;;;43.05;15.57;;;-3.50;92.90;;;;;;5047330;28;20032;-66
2023/02/07 03:34:59;;;;;;;34.45;15.60;;;-3.50;93.60;;;;;;5049214;28;20125;-66
2023/02/07 03:37:34;;;;;;;34.58;13.60;;;-3.50;94.20;;;;;;5049884;28;20129;-66
2023/02/07 03:40:00;;;;;;;38.80;15.83;;;-3.40;94.70;;;;;;5046227;28;20032;-66
2023/02/07 03:42:39;;;;;;;39.38;15.52;;;-3.40;95.00;;;;;;5048649;28;20025;-66
2023/02/07 03:45:10;;;;;;;37.38;14.82;;;-3.30;95.00;;;;;;5006236;28;1118199;-66
2023/02/07 03:47:36;;;;;;;34.95;14.02;;;-3.30;95.00;;;;;;5049459;28;20029;-66
2023/02/07 03:50:02;;;;;;;33.72;14.63;;;-3.20;95.10;;;;;;5047069;28;20025;-65
2023/02/07 03:52:28;;;;;;;35.75;13.82;;;-3.20;95.30;;;;;;5050884;28;20086;-65
2023/02/07 03:54:53;;;;;;;34.35;13.73;;;-3.20;95.10;;;;;;5047529;28;20033;-65
2023/02/07 03:57:19;;;;;;;37.55;14.45;;;-3.20;94.90;;;;;;5047888;28;20095;-65
2023/02/07 03:59:45;;;;;;;34.72;13.07;;;-3.20;94.90;;;;;;5049128;28;20032;-65
2023/02/07 04:02:11;;;;;;;34.45;13.82;;;-3.20;95.10;;;;;;5047911;28;20043;-65
2023/02/07 04:04:37;;;;;;;29.40;12.05;;;-3.20;95.40;;;;;;5047220;28;20031;-65
2023/02/07 04:07:02;;;;;;;28.60;11.18;;;-3.20;95.60;;;;;;5048029;28;20357;-65
2023/02/07 04:09:28;;;;;;;22.60;9.93;;;-3.20;95.80;;;;;;5051077;28;20035;-65
2023/02/07 04:11:54;;;;;;;22.75;10.13;;;-3.20;95.90;;;;;;5047116;28;20028;-65
2023/02/07 04:14:20;;;;;;;43.25;21.77;;;-3.20;96.00;;;;;;5047618;28;20025;-65
2023/02/07 04:16:47;;;;;;;41.20;19.48;;;-3.20;96.20;;;;;;5049998;28;20103;-65
2023/02/07 04:19:13;;;;;;;51.80;20.50;;;-3.10;96.20;;;;;;5050145;28;20039;-65
2023/02/07 04:21:39;;;;;;;44.30;20.80;;;-3.10;96.30;;;;;;5047851;28;20032;-65
2023/02/07 04:24:05;;;;;;;45.33;20.45;;;-3.10;96.40;;;;;;5047561;28;20497;-65
2023/02/07 04:26:30;;;;;;;36.35;17.63;;;-3.10;96.40;;;;;;5049044;28;20043;-65
2023/02/07 04:28:56;;;;;;;22.27;11.23;;;-3.10;96.40;;;;;;5045479;28;20024;-65
2023/02/07 04:31:22;;;;;;;22.33;10.55;;;-3.00;95.40;;;;;;5047786;28;20033;-65
2023/02/07 04:33:48;;;;;;;21.33;11.10;;;-3.10;95.10;;;;;;5046897;28;20037;-65
2023/02/07 04:36:14;;;;;;;20.60;10.57;;;-3.10;95.30;;;;;;5039689;28;20040;-65
2023/02/07 04:38:40;;;;;;;23.17;10.25;;;-3.10;95.30;;;;;;5049635;28;20119;-65
2023/02/07 04:41:06;;;;;;;26.33;10.98;;;-3.20;95.00;;;;;;5043425;28;20366;-65
2023/02/07 04:43:34;;;;;;;28.08;12.38;;;-3.20;95.10;;;;;;5047074;28;20029;-65
2023/02/07 04:46:00;;;;;;;32.13;13.20;;;-3.20;94.80;;;;;;5047203;28;20127;-65
2023/02/07 04:48:26;;;;;;;27.98;13.13;;;-3.10;95.10;;;;;;5052448;28;20028;-65
2023/02/07 04:50:52;;;;;;;40.85;13.95;;;-3.20;95.00;;;;;;5046638;28;20082;-65
2023/02/07 04:53:18;;;;;;;40.33;15.00;;;-3.20;94.60;;;;;;5047289;28;20032;-65
2023/02/07 04:55:52;;;;;;;38.70;14.52;;;-3.20;94.40;;;;;;5050033;28;20040;-65
2023/02/07 04:58:18;;;;;;;29.60;12.45;;;-3.20;93.70;;;;;;5046448;28;20035;-65
2023/02/07 05:00:45;;;;;;;38.17;15.05;;;-3.30;93.70;;;;;;5049982;28;20045;-65
2023/02/07 05:03:11;;;;;;;39.83;14.90;;;-3.40;94.00;;;;;;5046989;28;20033;-65
2023/02/07 05:05:38;;;;;;;45.05;15.85;;;-3.40;93.70;;;;;;5049274;28;20447;-65
2023/02/07 05:08:04;;;;;;;40.50;16.00;;;-3.40;93.50;;;;;;5028262;28;20032;-65
2023/02/07 05:10:30;;;;;;;35.20;14.73;;;-3.50;93.40;;;;;;5049114;28;20035;-65
2023/02/07 05:12:56;;;;;;;42.08;14.38;;;-3.60;93.70;;;;;;5048001;28;20032;-65
2023/02/07 05:15:22;;;;;;;41.08;15.13;;;-3.70;93.70;;;;;;5047307;28;20025;-65
2023/02/07 05:17:47;;;;;;;50.83;15.38;;;-3.70;93.50;;;;;;5049307;28;20044;-65
2023/02/07 05:20:13;;;;;;;35.55;13.52;;;-3.70;93.30;;;;;;5050416;28;20036;-65
2023/02/07 05:22:39;;;;;;;28.92;13.27;;;-3.70;93.40;;;;;;5047584;28;20032;-65
2023/02/07 05:25:05;;;;;;;32.65;12.32;;;-3.70;93.60;;;;;;5045765;28;20112;-65
2023/02/07 05:27:31;;;;;;;32.78;12.15;;;-3.80;93.80;;;;;;5048594;28;20157;-65
2023/02/07 05:29:58;;;;;;;33.17;12.52;;;-3.80;93.90;;;;;;5027564;28;20051;-65
2023/02/07 05:35:08;;;;;;;22.77;10.07;;;-3.80;93.40;;;;;;5048839;28;20076;-65
2023/02/07 05:37:34;;;;;;;19.83;9.45;;;-3.80;93.60;;;;;;5049824;28;20059;-65
2023/02/07 05:40:00;;;;;;;25.30;11.82;;;-3.90;93.80;;;;;;5046910;28;20035;-65
2023/02/07 05:42:26;;;;;;;24.23;11.18;;;-3.90;94.10;;;;;;5040510;28;20028;-65
2023/02/07 05:44:53;;;;;;;23.05;10.15;;;-3.90;93.90;;;;;;5046220;28;20040;-65
2023/02/07 05:47:18;;;;;;;21.08;9.10;;;-3.90;93.90;;;;;;5040382;28;20553;-65
2023/02/07 05:49:44;;;;;;;18.77;10.23;;;-3.90;94.00;;;;;;5046485;28;20058;-65
2023/02/07 05:52:10;;;;;;;23.42;10.45;;;-3.80;94.00;;;;;;5049673;28;20045;-65
2023/02/07 05:54:36;;;;;;;20.20;9.35;;;-3.80;94.00;;;;;;5057257;28;20044;-65
2023/02/07 05:57:01;;;;;;;23.88;9.77;;;-3.80;94.00;;;;;;5049091;28;20689;-65
2023/02/07 05:59:27;;;;;;;20.63;10.32;;;-3.90;94.00;;;;;;5053156;28;20833;-65
2023/02/07 06:01:53;;;;;;;19.48;8.73;;;-3.80;94.00;;;;;;5048950;28;20025;-65
2023/02/07 06:04:18;;;;;;;19.02;9.02;;;-3.80;94.20;;;;;;5043062;28;20433;-65
2023/02/07 06:06:44;;;;;;;23.20;10.30;;;-3.80;94.40;;;;;;5050348;28;20834;-65
2023/02/07 06:09:10;;;;;;;29.50;10.77;;;-3.80;94.00;;;;;;5045729;28;20668;-65
2023/02/07 06:11:36;;;;;;;24.60;9.85;;;-3.80;93.60;;;;;;5045904;28;20036;-65
2023/02/07 06:14:02;;;;;;;25.90;11.07;;;-3.80;93.60;;;;;;5045487;28;20035;-65
2023/02/07 06:16:27;;;;;;;24.30;10.98;;;-3.90;93.20;;;;;;5046860;28;20033;-65
2023/02/07 06:18:53;;;;;;;22.17;10.43;;;-3.90;93.20;;;;;;5041565;28;20025;-65
2023/02/07 06:21:19;;;;;;;23.52;10.07;;;-3.90;93.20;;;;;;5041574;28;20456;-65
2023/02/07 06:23:46;;;;;;;23.67;9.88;;;-3.90;93.10;;;;;;5049653;28;20616;-65
2023/02/07 06:26:12;;;;;;;27.45;10.10;;;-3.90;93.10;;;;;;5045326;28;20056;-65
2023/02/07 06:28:38;;;;;;;17.27;7.80;;;-4.00;93.00;;;;;;5050094;28;20087;-65
2023/02/07 06:31:04;;;;;;;23.00;9.30;;;-4.00;92.90;;;;;;5047061;28;20472;-65
2023/02/07 06:33:30;;;;;;;17.70;8.45;;;-4.00;93.10;;;;;;5045721;28;20823;-65
2023/02/07 06:35:55;;;;;;;23.45;9.70;;;-4.10;93.30;;;;;;5049795;28;20467;-65
2023/02/07 06:38:22;;;;;;;27.65;11.35;;;-4.00;93.30;;;;;;5050925;28;20758;-65
2023/02/07 06:40:48;;;;;;;29.90;12.73;;;-4.10;93.20;;;;;;5050178;28;20035;-65
2023/02/07 06:43:14;;;;;;;26.77;12.27;;;-4.10;92.90;;;;;;5039164;28;20116;-65
2023/02/07 06:45:40;;;;;;;29.23;13.45;;;-4.10;92.40;;;;;;5042581;28;20036;-65
2023/02/07 06:48:07;;;;;;;26.67;12.48;;;-4.10;92.40;;;;;;5047577;28;20061;-65
2023/02/07 06:50:33;;;;;;;28.23;12.40;;;-4.10;92.50;;;;;;5049853;28;20036;-65
2023/02/07 06:53:00;;;;;;;24.70;11.13;;;-4.10;92.30;;;;;;5030970;28;20048;-65
2023/02/07 06:55:34;;;;;;;28.67;10.98;;;-4.20;92.10;;;;;;5050064;28;20082;-65
2023/02/07 06:58:00;;;;;;;26.02;11.70;;;-4.20;92.00;;;;;;5041892;28;20036;-65
2023/02/07 07:00:26;;;;;;;22.95;11.10;;;-4.10;91.60;;;;;;5046933;28;20396;-65
2023/02/07 07:02:52;;;;;;;26.85;12.02;;;-4.20;91.60;;;;;;5048341;28;20090;-65
2023/02/07 07:05:18;;;;;;;22.48;9.90;;;-4.20;91.80;;;;;;5040980;28;20886;-64
2023/02/07 07:07:44;;;;;;;25.95;9.77;;;-4.30;92.10;;;;;;5046665;28;20032;-65
2023/02/07 07:10:11;;;;;;;21.48;9.25;;;-4.30;92.40;;;;;;5044082;28;20059;-65
2023/02/07 07:12:37;;;;;;;27.30;11.40;;;-4.30;92.80;;;;;;5051835;28;20030;-65
2023/02/07 07:15:03;;;;;;;27.40;11.75;;;-4.30;93.10;;;;;;5043471;28;20028;-65
2023/02/07 07:17:29;;;;;;;27.55;12.70;;;-4.30;93.20;;;;;;5048447;28;20038;-65
2023/02/07 07:19:54;;;;;;;27.50;11.77;;;-4.20;93.20;;;;;;5042995;28;20404;-65
2023/02/07 07:22:20;;;;;;;26.17;11.32;;;-4.10;92.70;;;;;;5043951;28;20873;-65
2023/02/07 07:24:46;;;;;;;27.60;12.48;;;-4.10;92.40;;;;;;5049344;28;20033;-65
2023/02/07 07:27:12;;;;;;;32.03;11.25;;;-4.10;92.60;;;;;;5046283;28;20906;-65
2023/02/07 07:29:38;;;;;;;25.02;10.52;;;-4.10;92.70;;;;;;5043145;28;20021;-65
2023/02/07 07:32:04;;;;;;;22.92;10.20;;;-4.10;92.30;;;;;;5028119;28;20108;-65
2023/02/07 07:34:30;;;;;;;28.33;11.20;;;-4.00;92.40;;;;;;5050501;28;20021;-65
2023/02/07 07:36:56;;;;;;;20.60;10.20;;;-4.00;92.50;;;;;;5044863;28;20020;-65
2023/02/07 07:39:25;;;;;;;21.70;9.93;;;-4.00;92.50;;;;;;5043872;28;20041;-65
2023/02/07 07:41:51;;;;;;;26.00;11.38;;;-3.90;93.10;;;;;;5046268;28;20021;-65
2023/02/07 07:44:33;;;;;;;19.60;10.05;;;-3.80;93.60;;;;;;5042227;28;20029;-64
2023/02/07 07:46:59;;;;;;;22.67;10.45;;;-3.70;94.00;;;;;;5043086;28;20594;-64
2023/02/07 07:49:25;;;;;;;29.63;12.07;;;-3.60;94.50;;;;;;5046689;28;20024;-65
2023/02/07 07:51:51;;;;;;;24.92;10.90;;;-3.50;94.90;;;;;;5046491;28;20037;-65
2023/02/07 07:54:17;;;;;;;25.67;10.60;;;-3.40;95.30;;;;;;5045324;28;20033;-64
2023/02/07 07:56:43;;;;;;;24.90;10.93;;;-3.30;95.40;;;;;;5020362;28;20033;-64
2023/02/07 07:59:08;;;;;;;26.13;10.23;;;-3.20;95.30;;;;;;5041378;28;20501;-65
2023/02/07 08:01:34;;;;;;;28.50;12.80;;;-3.10;95.30;;;;;;5045588;28;20496;-64
2023/02/07 08:04:00;;;;;;;26.65;12.52;;;-3.00;95.50;;;;;;5046606;28;20060;-65
2023/02/07 08:06:26;;;;;;;30.35;12.57;;;-2.80;95.50;;;;;;5047249;28;20051;-66
2023/02/07 08:08:52;;;;;;;25.83;11.38;;;-2.70;95.30;;;;;;5046834;28;20028;-64
2023/02/07 08:11:17;;;;;;;24.05;11.20;;;-2.60;95.20;;;;;;5039156;28;20036;-64
2023/02/07 08:13:43;;;;;;;31.52;14.13;;;-2.40;95.30;;;;;;5042561;28;20046;-64
2023/02/07 08:16:10;;;;;;;26.83;12.35;;;-2.30;95.00;;;;;;5047366;28;20032;-64
2023/02/07 08:18:36;;;;;;;29.48;12.45;;;-2.10;94.90;;;;;;5042839;28;20064;-64
2023/02/07 08:21:02;;;;;;;24.60;11.32;;;-1.80;95.70;;;;;;5046572;28;20056;-63
2023/02/07 08:23:28;;;;;;;25.15;11.30;;;-1.50;94.90;;;;;;5036129;28;20576;-64
2023/02/07 08:25:54;;;;;;;26.33;11.32;;;-1.20;94.30;;;;;;5049914;28;20155;-64
2023/02/07 08:28:20;;;;;;;25.48;11.15;;;-1.00;93.40;;;;;;5044425;28;20033;-64
2023/02/07 08:30:46;;;;;;;23.95;10.90;;;-0.90;93.10;;;;;;5050342;28;20033;-63
2023/02/07 08:33:13;;;;;;;22.77;10.57;;;-0.80;93.30;;;;;;5046824;28;20042;-64
2023/02/07 08:35:40;;;;;;;23.70;11.45;;;-0.80;93.20;;;;;;5044252;28;20578;-64
2023/02/07 08:38:05;;;;;;;27.33;11.98;;;-0.80;92.80;;;;;;5045957;28;20040;-64
2023/02/07 08:40:31;;;;;;;24.20;11.32;;;-0.80;93.10;;;;;;5042798;28;20396;-64
2023/02/07 08:42:58;;;;;;;23.73;11.20;;;-0.80;92.80;;;;;;5044753;28;20045;-64
2023/02/07 08:45:24;;;;;;;31.70;11.85;;;-0.70;93.00;;;;;;5035065;28;20159;-64
2023/02/07 08:47:50;;;;;;;25.55;11.27;;;-0.70;93.30;;;;;;5039178;28;20074;-64
2023/02/07 08:50:17;;;;;;;24.38;11.20;;;-0.60;93.80;;;;;;5046395;28;20063;-64
2023/02/07 08:52:43;;;;;;;26.58;12.18;;;-0.40;94.00;;;;;;5043836;28;20037;-63
2023/02/07 08:55:10;;;;;;;24.98;11.82;;;-0.20;93.40;;;;;;5043283;28;20032;-64
2023/02/07 08:57:36;;;;;;;26.75;10.95;;;0.10;93.00;;;;;;5040453;28;20044;-63
2023/02/07 09:00:05;;;;;;;22.05;10.65;;;0.30;92.80;;;;;;5040678;28;20043;-62
2023/02/07 09:02:30;;;;;;;23.73;12.13;;;0.60;92.40;;;;;;5021042;28;20075;-63
2023/02/07 09:04:56;;;;;;;21.35;11.20;;;0.80;92.20;;;;;;5027841;28;20132;-62
2023/02/07 09:07:22;;;;;;;24.05;11.65;;;0.90;92.50;;;;;;5044973;28;20033;-61
2023/02/07 09:09:48;;;;;;;26.75;11.63;;;1.00;92.20;;;;;;5047032;28;20021;-64
2023/02/07 09:12:14;;;;;;;28.05;11.35;;;1.00;92.00;;;;;;5039562;28;20029;-63
2023/02/07 09:14:40;;;;;;;23.17;11.45;;;1.00;92.20;;;;;;5044247;28;20032;-63
2023/02/07 09:17:07;;;;;;;22.42;10.45;;;1.00;92.50;;;;;;5045410;28;20036;-63
2023/02/07 09:19:34;;;;;;;25.23;11.98;;;1.00;92.90;;;;;;5044873;28;20100;-65
2023/02/07 09:22:00;;;;;;;21.88;11.80;;;1.10;92.60;;;;;;5039418;28;20044;-63
2023/02/07 09:24:25;;;;;;;25.73;11.43;;;1.20;92.50;;;;;;5043712;28;20029;-62
2023/02/07 09:26:51;;;;;;;23.05;10.50;;;1.20;92.80;;;;;;5048319;28;20140;-63
2023/02/07 09:29:17;;;;;;;26.55;12.15;;;1.40;93.00;;;;;;5042996;28;20025;-63
2023/02/07 09:31:43;;;;;;;23.23;10.57;;;1.60;92.70;;;;;;5052225;28;20017;-64
2023/02/07 09:34:09;;;;;;;24.70;11.65;;;2.50;92.20;;;;;;5051572;28;20193;-63
2023/02/07 09:36:35;;;;;;;26.98;12.70;;;3.80;87.50;;;;;;5043096;28;20076;-64
2023/02/07 09:39:02;;;;;;;22.05;10.38;;;5.00;81.60;;;;;;5045301;28;20523;-64
2023/02/07 09:41:54;;;;;;;22.33;10.93;;;6.20;76.60;;;;;;5050804;28;20041;-63
2023/02/07 09:44:28;;;;;;;21.13;10.48;;;6.70;71.80;;;;;;5049073;28;20033;-64
2023/02/07 09:47:14;;;;;;;22.52;10.55;;;6.80;70.30;;;;;;5051562;28;20033;-64
2023/02/07 09:49:40;;;;;;;17.52;9.45;;;7.00;67.10;;;;;;5042812;28;20040;-64
2023/02/07 09:52:12;;;;;;;18.13;9.82;;;7.80;64.20;;;;;;5049131;28;20033;-65
2023/02/07 09:54:44;;;;;;;22.25;9.90;;;8.70;59.50;;;;;;5045677;28;20149;-64
2023/02/07 09:57:22;;;;;;;21.77;9.82;;;9.70;57.60;;;;;;5050061;28;20056;-63
2023/02/07 10:00:08;;;;;;;18.40;8.80;;;10.50;55.00;;;;;;5048367;28;20428;-64
2023/02/07 10:02:44;;;;;;;15.98;8.52;;;11.20;52.50;;;;;;5045220;28;20024;-63
2023/02/07 10:05:42;;;;;;;17.90;9.05;;;11.50;51.30;;;;;;5044156;28;20025;-63
2023/02/07 10:08:14;;;;;;;19.50;9.55;;;12.10;49.60;;;;;;5034546;28;20037;-65
2023/02/07 10:11:07;;;;;;;18.83;9.18;;;12.00;48.80;;;;;;5044518;28;20039;-64
2023/02/07 10:13:54;;;;;;;18.75;9.02;;;12.20;48.70;;;;;;5044944;28;20730;-64
2023/02/07 10:16:28;;;;;;;16.45;9.82;;;12.40;48.30;;;;;;5036959;28;20033;-64
2023/02/07 10:19:10;;;;;;;17.85;9.10;;;13.00;47.70;;;;;;5044910;28;20795;-64
2023/02/07 10:21:45;;;;;;;17.58;9.52;;;13.40;46.00;;;;;;5027398;28;20190;-64
2023/02/07 10:24:55;;;;;;;17.27;9.27;;;13.40;45.60;;;;;;5041374;28;20036;-64
2023/02/07 10:27:36;;;;;;;22.63;11.50;;;13.00;45.70;;;;;;5023366;28;20619;-65
2023/02/07 10:30:34;;;;;;;16.48;8.27;;;12.40;47.80;;;;;;5047183;28;20136;-65
2023/02/07 10:33:23;;;;;;;17.35;8.30;;;12.00;49.10;;;;;;4990930;28;20170;-65
2023/02/07 10:35:50;;;;;;;16.52;7.88;;;11.50;47.80;;;;;;5050540;28;20850;-65
2023/02/07 10:38:33;;;;;;;15.32;8.23;;;11.20;49.50;;;;;;5047560;28;20029;-65
2023/02/07 10:41:04;;;;;;;13.70;7.13;;;11.00;50.60;;;;;;5038256;28;20037;-65
2023/02/07 10:43:32;;;;;;;14.63;7.60;;;10.80;51.20;;;;;;5047910;28;20234;-64
2023/02/07 10:46:07;;;;;;;15.23;7.85;;;11.00;51.40;;;;;;5044797;28;20064;-64
2023/02/07 10:48:35;;;;;;;13.70;7.72;;;11.40;50.20;;;;;;5045277;28;20392;-64
2023/02/07 10:51:25;;;;;;;14.02;7.25;;;11.90;48.50;;;;;;5047097;28;20040;-64
2023/02/07 10:54:15;;;;;;;16.73;8.55;;;12.50;47.20;;;;;;5044511;28;20120;-64
2023/02/07 10:56:44;;;;;;;12.30;7.20;;;12.90;47.20;;;;;;5045339;28;20032;-65
2023/02/07 10:59:45;;;;;;;14.00;7.35;;;13.00;46.20;;;;;;5047377;28;20666;-65
2023/02/07 11:02:48;;;;;;;15.68;8.23;;;13.20;44.90;;;;;;5038162;28;20499;-64
2023/02/07 11:05:14;;;;;;;39.22;17.10;;;14.50;41.70;;;;;;5025692;28;20036;-64
2023/02/07 11:07:40;;;;;;;23.38;11.15;;;15.80;40.30;;;;;;5048325;28;20036;-64
2023/02/07 11:10:23;;;;;;;18.15;8.55;;;16.70;37.80;;;;;;5041154;28;20128;-64
2023/02/07 11:12:53;;;;;;;11.98;7.05;;;17.30;36.70;;;;;;5040013;28;20056;-64
2023/02/07 11:15:24;;;;;;;12.40;7.35;;;17.60;35.90;;;;;;5045896;28;20603;-64
2023/02/07 11:17:55;;;;;;;11.43;6.68;;;18.00;34.40;;;;;;5041629;28;20412;-64
2023/02/07 11:20:29;;;;;;;13.48;6.82;;;18.10;34.10;;;;;;5045689;28;20056;-62
2023/02/07 11:22:56;;;;;;;12.50;7.35;;;18.00;34.30;;;;;;5046112;28;20040;-64
2023/02/07 11:25:41;;;;;;;15.05;8.05;;;17.70;34.80;;;;;;5041458;28;20028;-63
2023/02/07 11:28:14;;;;;;;17.00;8.77;;;17.70;34.60;;;;;;5038547;28;20029;-65
2023/02/07 11:30:40;;;;;;;13.65;7.38;;;16.60;36.70;;;;;;5038500;28;20083;-62
2023/02/07 11:33:19;;;;;;;13.07;7.65;;;14.20;40.60;;;;;;5046443;28;20107;-65
2023/02/07 11:36:19;;;;;;;17.52;8.45;;;12.10;45.20;;;;;;5041379;28;20044;-65
2023/02/07 11:38:48;;;;;;;18.83;8.85;;;10.40;48.60;;;;;;5045409;28;20035;-66
2023/02/07 11:41:24;;;;;;;19.42;9.43;;;9.00;52.10;;;;;;5049101;28;20560;-65
2023/02/07 11:43:51;;;;;;;;;;;8.10;54.90;;;;;;5035074;28;20041;-65
2023/02/07 11:46:17;;;;;;;;;;;7.40;57.00;;;;;;5040188;28;19912;-65
2023/02/07 11:48:48;;;;;;;16.10;8.17;;;6.90;57.70;;;;;;5041101;28;19962;-65
2023/02/07 11:51:17;;;;;;;15.32;8.25;;;6.60;61.00;;;;;;5036389;28;20282;-65
2023/02/07 11:54:02;;;;;;;14.75;7.82;;;6.20;60.90;;;;;;5038226;28;20032;-65
2023/02/07 11:56:42;;;;;;;15.40;7.70;;;6.00;62.20;;;;;;5048190;28;20459;-66
2023/02/07 11:59:15;;;;;;;16.55;8.05;;;5.90;62.00;;;;;;5040976;28;20037;-66
2023/02/07 12:01:43;;;;;;;17.35;8.43;;;5.80;63.40;;;;;;5046862;28;20028;-66
2023/02/07 12:04:14;;;;;;;16.08;8.98;;;5.60;63.40;;;;;;5047152;28;20052;-66
2023/02/07 12:06:52;;;;;;;11.55;6.93;;;5.60;63.30;;;;;;5043774;28;20648;-65
2023/02/07 12:09:42;;;;;;;17.85;8.68;;;5.40;62.90;;;;;;5043208;28;20031;-66
2023/02/07 12:12:30;;;;;;;18.27;7.95;;;5.30;64.30;;;;;;5009846;28;20091;-66
2023/02/07 12:15:13;;;;;;;15.55;8.52;;;5.30;65.40;;;;;;5033354;28;20055;-66
2023/02/07 12:18:01;;;;;;;17.52;9.18;;;5.20;67.60;;;;;;5043638;28;20036;-66
2023/02/07 12:21:06;;;;;;;18.63;8.35;;;5.00;68.30;;;;;;5047915;28;20549;-66
2023/02/07 12:23:56;;;;;;;15.55;7.53;;;5.00;67.50;;;;;;5010713;28;20048;-66
2023/02/07 12:26:43;;;;;;;15.90;8.63;;;5.00;67.50;;;;;;5040971;28;20029;-66
2023/02/07 12:29:23;;;;;;;21.55;12.43;;;5.10;67.40;;;;;;5041337;28;20206;-66
2023/02/07 12:32:01;;;;;;;17.90;8.43;;;5.10;67.70;;;;;;5031828;28;20459;-67
2023/02/07 12:34:44;;;;;;;18.20;8.40;;;5.10;68.10;;;;;;5025695;28;20047;-65
2023/02/07 12:37:51;;;;;;;16.13;8.02;;;5.20;67.80;;;;;;5043566;28;20656;-65
2023/02/07 12:40:17;;;;;;;;;;;5.10;66.50;;;;;;5032271;28;20038;-65
2023/02/07 12:43:13;;;;;;;16.00;6.97;;;5.00;66.10;;;;;;5051143;28;19927;-66
2023/02/07 12:45:53;;;;;;;13.23;7.27;;;4.80;67.10;;;;;;5041725;28;20033;-66
2023/02/07 12:48:52;;;;;;;16.05;8.05;;;4.70;67.90;;;;;;5035984;28;20308;-64
2023/02/07 12:51:55;;;;;;;16.23;8.02;;;4.60;68.80;;;;;;5044002;28;20095;-65
2023/02/07 12:54:56;;;;;;;16.48;7.60;;;4.60;68.30;;;;;;5041018;28;20077;-66
2023/02/07 12:57:35;;;;;;;17.20;7.85;;;4.60;68.00;;;;;;5037344;28;20442;-65